Time;durP1;ratioP1;P1;durP2;ratioP2;P2;SDS_P1;SDS_P2;PMS_P1;PMS_P2;Temp;Humidity;BMP_temperature;BMP_pressure;BME280_temperature;BME280_humidity;BME280_pressure;Samples;Min_cycle;Max_cycle;Signal;HPM_P1;HPM_P2
2023/10/04 00:01:21;;;;;;;;;;;14.70;99.90;;;;;;7314416;19;9573;-64
2023/10/04 00:03:50;;;;;;;;;;;14.60;99.90;;;;;;7315684;19;9304;-64
2023/10/04 00:06:20;;;;;;;;;;;14.60;99.90;;;;;;7318679;19;9280;-64
2023/10/04 00:08:49;;;;;;;;;;;14.60;99.90;;;;;;7318611;19;9232;-64
2023/10/04 00:11:20;;;;;;;;;;;14.60;99.90;;;;;;7320646;19;9250;-64
2023/10/04 00:13:49;;;;;;;;;;;14.70;99.90;;;;;;7320037;19;9665;-64
2023/10/04 00:16:18;;;;;;;;;;;14.70;99.90;;;;;;7320733;19;9577;-64
2023/10/04 00:18:49;;;;;;;;;;;14.70;99.90;;;;;;7316392;19;9278;-64
2023/10/04 00:21:18;;;;;;;;;;;14.50;99.90;;;;;;7319277;19;9538;-64
2023/10/04 00:23:48;;;;;;;;;;;14.50;99.90;;;;;;7317390;19;9369;-64
2023/10/04 00:26:20;;;;;;;;;;;14.30;99.90;;;;;;7316614;19;9208;-64
2023/10/04 00:28:49;;;;;;;;;;;14.20;99.90;;;;;;7317276;19;9577;-65
2023/10/04 00:31:18;;;;;;;;;;;14.20;99.90;;;;;;7316675;19;9277;-64
2023/10/04 00:33:49;;;;;;;;;;;14.10;99.90;;;;;;7316826;19;10071;-64
2023/10/04 00:36:21;;;;;;;;;;;14.10;99.90;;;;;;7315057;19;9368;-64
2023/10/04 00:38:53;;;;;;;;;;;13.90;99.90;;;;;;7318968;19;9249;-64
2023/10/04 00:41:26;;;;;;;;;;;13.90;99.90;;;;;;7316487;19;10300;-64
2023/10/04 00:43:58;;;;;;;;;;;14.00;99.90;;;;;;7321506;19;9130;-64
2023/10/04 00:46:29;;;;;;;;;;;14.00;99.90;;;;;;7317211;19;9112;-65
2023/10/04 00:49:00;;;;;;;;;;;13.90;99.90;;;;;;7319576;19;9393;-64
2023/10/04 00:51:35;;;;;;;;;;;13.90;99.90;;;;;;7316323;19;9434;-64
2023/10/04 00:54:07;;;;;;;;;;;13.90;99.90;;;;;;7318031;19;9194;-64
2023/10/04 00:56:41;;;;;;;;;;;13.90;99.90;;;;;;7314321;19;9314;-64
2023/10/04 00:59:11;;;;;;;;;;;13.80;99.90;;;;;;7315066;19;10708;-64
2023/10/04 01:01:40;;;;;;;;;;;13.90;99.90;;;;;;7316898;19;9835;-64
2023/10/04 01:04:10;;;;;;;;;;;14.00;99.90;;;;;;7313406;19;9289;-64
2023/10/04 01:06:40;;;;;;;;;;;14.00;99.90;;;;;;7317041;19;9530;-64
2023/10/04 01:09:09;;;;;;;;;;;14.00;99.90;;;;;;7317255;19;9454;-65
2023/10/04 01:11:48;;;;;;;;;;;14.10;99.90;;;;;;7315740;19;9403;-64
2023/10/04 01:14:25;;;;;;;;;;;14.10;99.90;;;;;;7317142;19;10760;-64
2023/10/04 01:16:55;;;;;;;;;;;14.00;99.90;;;;;;7323465;19;9302;-64
2023/10/04 01:19:25;;;;;;;;;;;13.90;99.90;;;;;;7322028;19;9311;-64
2023/10/04 01:21:55;;;;;;;;;;;14.00;99.90;;;;;;7325267;19;9233;-64
2023/10/04 01:24:29;;;;;;;;;;;14.00;99.90;;;;;;7322367;19;9378;-65
2023/10/04 01:26:58;;;;;;;;;;;14.00;99.90;;;;;;7323526;19;9478;-64
2023/10/04 01:29:27;;;;;;;;;;;14.00;99.90;;;;;;7326179;19;9217;-65
2023/10/04 01:31:57;;;;;;;;;;;14.00;99.90;;;;;;7325007;19;9253;-64
2023/10/04 01:34:26;;;;;;;;;;;13.90;99.90;;;;;;7317414;19;9537;-65
2023/10/04 01:36:55;;;;;;;;;;;13.80;99.90;;;;;;7325501;19;9309;-64
2023/10/04 01:39:30;;;;;;;;;;;13.70;99.90;;;;;;7323967;19;9508;-64
2023/10/04 01:41:59;;;;;;;;;;;13.80;99.90;;;;;;7322655;19;9489;-64
2023/10/04 01:44:28;;;;;;;;;;;13.90;99.90;;;;;;7322531;19;9661;-64
2023/10/04 01:46:57;;;;;;;;;;;14.00;99.90;;;;;;7318491;19;9499;-65
2023/10/04 01:49:26;;;;;;;;;;;14.00;99.90;;;;;;7323723;19;9737;-64
2023/10/04 01:51:55;;;;;;;;;;;14.10;99.90;;;;;;7321121;19;9228;-64
2023/10/04 01:54:24;;;;;;;;;;;14.10;99.90;;;;;;7322068;19;9502;-64
2023/10/04 01:56:56;;;;;;;;;;;14.20;99.90;;;;;;7324448;19;9191;-64
2023/10/04 01:59:24;;;;;;;;;;;14.20;99.90;;;;;;7319810;19;9318;-64
2023/10/04 02:01:53;;;;;;;;;;;14.20;99.90;;;;;;7325057;19;9629;-65
2023/10/04 02:04:23;;;;;;;;;;;14.20;99.90;;;;;;7320447;19;9237;-65
2023/10/04 02:06:52;;;;;;;;;;;14.20;99.90;;;;;;7322291;19;9258;-64
2023/10/04 02:09:21;;;;;;;;;;;14.30;99.90;;;;;;7324004;19;9519;-64
2023/10/04 02:11:50;;;;;;;;;;;14.20;99.90;;;;;;7321683;19;9537;-64
2023/10/04 02:14:22;;;;;;;;;;;14.20;99.90;;;;;;7325070;19;9236;-65
2023/10/04 02:16:52;;;;;;;;;;;14.20;99.90;;;;;;7322077;19;9293;-65
2023/10/04 02:19:22;;;;;;;;;;;14.20;99.90;;;;;;7322279;19;9195;-65
2023/10/04 02:21:51;;;;;;;;;;;14.30;99.90;;;;;;7324258;19;9524;-65
2023/10/04 02:24:20;;;;;;;;;;;14.30;99.90;;;;;;7324219;19;9480;-65
2023/10/04 02:26:50;;;;;;;;;;;14.40;99.90;;;;;;7318083;19;9465;-64
2023/10/04 02:29:21;;;;;;;;;;;14.40;99.90;;;;;;7323627;19;9206;-64
2023/10/04 02:31:52;;;;;;;;;;;14.40;99.90;;;;;;7323337;19;9202;-64
2023/10/04 02:34:21;;;;;;;;;;;14.40;99.90;;;;;;7314609;19;9538;-64
2023/10/04 02:36:51;;;;;;;;;;;14.50;99.90;;;;;;7321669;19;9237;-65
2023/10/04 02:39:23;;;;;;;;;;;14.50;99.90;;;;;;7323737;19;9301;-64
2023/10/04 02:41:53;;;;;;;;;;;14.50;99.90;;;;;;7321360;19;11466;-64
2023/10/04 02:44:25;;;;;;;;;;;14.50;99.90;;;;;;7322432;19;9281;-65
2023/10/04 02:46:54;;;;;;;;;;;14.50;99.90;;;;;;7321305;19;9371;-65
2023/10/04 02:49:23;;;;;;;;;;;14.50;99.90;;;;;;7322747;19;9397;-65
2023/10/04 02:51:52;;;;;;;;;;;14.40;99.90;;;;;;7317498;19;9246;-64
2023/10/04 02:54:23;;;;;;;;;;;14.40;99.90;;;;;;7322274;19;9289;-64
2023/10/04 02:56:52;;;;;;;;;;;14.40;99.90;;;;;;7321357;19;9517;-64
2023/10/04 02:59:24;;;;;;;;;;;14.40;99.90;;;;;;7318105;19;9288;-64
2023/10/04 03:01:56;;;;;;;;;;;14.40;99.90;;;;;;7319618;19;9170;-64
2023/10/04 03:04:25;;;;;;;;;;;14.40;99.90;;;;;;7319160;19;9203;-64
2023/10/04 03:06:54;;;;;;;;;;;14.30;99.90;;;;;;7318568;19;9514;-64
2023/10/04 03:09:24;;;;;;;;;;;14.30;99.90;;;;;;7319220;19;10371;-64
2023/10/04 03:11:53;;;;;;;;;;;14.40;99.90;;;;;;7321667;19;9143;-64
2023/10/04 03:14:24;;;;;;;;;;;14.40;99.90;;;;;;7322732;19;9156;-64
2023/10/04 03:16:59;;;;;;;;;;;14.30;99.90;;;;;;7321330;19;9609;-64
2023/10/04 03:19:28;;;;;;;;;;;14.30;99.90;;;;;;7317514;19;9170;-64
2023/10/04 03:21:57;;;;;;;;;;;14.40;99.90;;;;;;7319430;19;9530;-64
2023/10/04 03:24:26;;;;;;;;;;;14.40;99.90;;;;;;7319769;19;9264;-64
2023/10/04 03:26:55;;;;;;;;;;;14.30;99.90;;;;;;7319993;19;9495;-64
2023/10/04 03:29:24;;;;;;;;;;;14.40;99.90;;;;;;7323225;19;9630;-64
2023/10/04 03:31:56;;;;;;;;;;;14.50;99.90;;;;;;7321354;19;9293;-64
2023/10/04 03:34:25;;;;;;;;;;;14.50;99.90;;;;;;7318434;19;9389;-65
2023/10/04 03:36:54;;;;;;;;;;;14.50;99.90;;;;;;7319074;19;9504;-65
2023/10/04 03:39:28;;;;;;;;;;;14.50;99.90;;;;;;7321093;19;9308;-64
2023/10/04 03:41:59;;;;;;;;;;;14.40;99.90;;;;;;7319072;19;10313;-64
2023/10/04 03:44:29;;;;;;;;;;;14.40;99.90;;;;;;7320798;19;9435;-64
2023/10/04 03:47:00;;;;;;;;;;;14.40;99.90;;;;;;7319721;19;9474;-64
2023/10/04 03:49:29;;;;;;;;;;;14.40;99.90;;;;;;7322003;19;9481;-64
2023/10/04 03:51:58;;;;;;;;;;;14.40;99.90;;;;;;7320909;19;9656;-64
2023/10/04 03:54:28;;;;;;;;;;;14.30;99.90;;;;;;7318911;19;9435;-64
2023/10/04 03:56:56;;;;;;;;;;;14.40;99.90;;;;;;7318541;19;9257;-64
2023/10/04 03:59:26;;;;;;;;;;;14.40;99.90;;;;;;7317929;19;9521;-64
2023/10/04 04:01:55;;;;;;;;;;;14.40;99.90;;;;;;7322347;19;9242;-64
2023/10/04 04:04:26;;;;;;;;;;;14.30;99.90;;;;;;7317699;19;9264;-64
2023/10/04 04:06:55;;;;;;;;;;;14.40;99.90;;;;;;7317467;19;9258;-64
2023/10/04 04:09:24;;;;;;;;;;;14.50;99.90;;;;;;7318194;19;10697;-64
2023/10/04 04:11:54;;;;;;;;;;;14.40;99.90;;;;;;7320884;19;9186;-64
2023/10/04 04:14:23;;;;;;;;;;;14.50;99.90;;;;;;7320881;19;10759;-64
2023/10/04 04:16:52;;;;;;;;;;;14.60;99.90;;;;;;7317420;19;9303;-64
2023/10/04 04:19:23;;;;;;;;;;;14.60;99.90;;;;;;7319996;19;9245;-64
2023/10/04 04:21:57;;;;;;;;;;;14.70;99.90;;;;;;7321075;19;9243;-64
2023/10/04 04:24:27;;;;;;;;;;;14.60;99.90;;;;;;7315406;19;9221;-64
2023/10/04 04:27:00;;;;;;;;;;;14.70;99.90;;;;;;7317853;19;9547;-64
2023/10/04 04:29:29;;;;;;;;;;;14.60;99.90;;;;;;7321871;19;9335;-64
2023/10/04 04:32:01;;;;;;;;;;;14.60;99.90;;;;;;7318698;19;9368;-64
2023/10/04 04:34:30;;;;;;;;;;;14.60;99.90;;;;;;7316867;19;9161;-64
2023/10/04 04:37:02;;;;;;;;;;;14.70;99.90;;;;;;7315354;19;9394;-64
2023/10/04 04:39:31;;;;;;;;;;;14.70;99.90;;;;;;7316430;19;9519;-65
2023/10/04 04:42:04;;;;;;;;;;;14.80;99.90;;;;;;7319665;19;9275;-64
2023/10/04 04:44:39;;;;;;;;;;;14.80;99.90;;;;;;7317289;19;9378;-64
2023/10/04 04:47:10;;;;;;;;;;;14.70;99.90;;;;;;7317608;19;10205;-64
2023/10/04 04:49:40;;;;;;;;;;;14.60;99.90;;;;;;7317920;19;9151;-64
2023/10/04 04:52:12;;;;;;;;;;;14.70;99.90;;;;;;7316314;19;9237;-65
2023/10/04 04:54:41;;;;;;;;;;;14.70;99.90;;;;;;7319692;19;9208;-64
2023/10/04 04:57:10;;;;;;;;;;;14.60;99.90;;;;;;7315606;19;9349;-65
2023/10/04 04:59:42;;;;;;;;;;;14.60;99.90;;;;;;7315158;19;9289;-64
2023/10/04 05:02:11;;;;;;;;;;;14.60;99.90;;;;;;7314030;19;9255;-64
2023/10/04 05:04:40;;;;;;;;;;;14.70;99.90;;;;;;7312664;19;9237;-65
2023/10/04 05:07:12;;;;;;;;;;;14.60;99.90;;;;;;7315420;19;9692;-64
2023/10/04 05:09:42;;;;;;;;;;;14.50;99.90;;;;;;7317116;19;9138;-65
2023/10/04 05:12:11;;;;;;;;;;;14.40;99.90;;;;;;7318108;19;9502;-64
2023/10/04 05:14:40;;;;;;;;;;;14.30;99.90;;;;;;7313570;19;9221;-64
2023/10/04 05:17:09;;;;;;;;;;;14.20;99.90;;;;;;7313801;19;9563;-64
2023/10/04 05:19:38;;;;;;;;;;;14.10;99.90;;;;;;7309660;19;9330;-64
2023/10/04 05:22:07;;;;;;;;;;;14.10;99.90;;;;;;7316092;19;9228;-64
2023/10/04 05:24:40;;;;;;;;;;;14.20;99.90;;;;;;7319707;19;9300;-65
2023/10/04 05:27:09;;;;;;;;;;;14.20;99.90;;;;;;7318501;19;10418;-64
2023/10/04 05:29:38;;;;;;;;;;;14.20;99.90;;;;;;7317760;19;9246;-65
2023/10/04 05:32:07;;;;;;;;;;;14.10;99.90;;;;;;7317621;19;9270;-64
2023/10/04 05:34:37;;;;;;;;;;;14.10;99.90;;;;;;7314963;19;9222;-65
2023/10/04 05:37:06;;;;;;;;;;;14.10;99.90;;;;;;7319549;19;9473;-64
2023/10/04 05:39:36;;;;;;;;;;;14.10;99.90;;;;;;7317486;19;9237;-64
2023/10/04 05:42:09;;;;;;;;;;;14.00;99.90;;;;;;7316806;19;9403;-64
2023/10/04 05:44:38;;;;;;;;;;;13.90;99.90;;;;;;7319302;19;10451;-65
2023/10/04 05:47:08;;;;;;;;;;;13.90;99.90;;;;;;7318925;19;9321;-65
2023/10/04 05:49:37;;;;;;;;;;;14.00;99.90;;;;;;7319661;19;9196;-65
2023/10/04 05:52:06;;;;;;;;;;;14.00;99.90;;;;;;7317527;19;10648;-64
2023/10/04 05:54:35;;;;;;;;;;;14.00;99.90;;;;;;7313483;19;9224;-62
2023/10/04 05:57:04;;;;;;;;;;;14.00;99.90;;;;;;7314066;19;10663;-70
2023/10/04 05:59:36;;;;;;;;;;;14.00;99.90;;;;;;7316567;19;9188;-65
2023/10/04 06:02:05;;;;;;;;;;;14.00;99.90;;;;;;7320332;19;9237;-62
2023/10/04 06:04:34;;;;;;;;;;;13.90;99.90;;;;;;7323030;19;9513;-67
2023/10/04 06:07:03;;;;;;;;;;;14.00;99.90;;;;;;7322660;19;9182;-63
2023/10/04 06:09:32;;;;;;;;;;;14.20;99.90;;;;;;7322144;19;9131;-63
2023/10/04 06:12:01;;;;;;;;;;;14.10;99.90;;;;;;7322761;19;9297;-63
2023/10/04 06:14:30;;;;;;;;;;;14.30;99.90;;;;;;7318932;19;10379;-62
2023/10/04 06:17:02;;;;;;;;;;;14.20;99.90;;;;;;7319910;19;9256;-62
2023/10/04 06:19:31;;;;;;;;;;;14.20;99.90;;;;;;7326380;19;10344;-63
2023/10/04 06:22:00;;;;;;;;;;;14.20;99.90;;;;;;7324940;19;9359;-63
2023/10/04 06:24:29;;;;;;;;;;;14.30;99.90;;;;;;7322387;19;9384;-63
2023/10/04 06:26:58;;;;;;;;;;;14.40;99.90;;;;;;7316467;19;9846;-63
2023/10/04 06:29:28;;;;;;;;;;;14.60;99.90;;;;;;7324823;19;9283;-63
2023/10/04 06:31:57;;;;;;;;;;;14.80;99.90;;;;;;7319798;19;9845;-63
2023/10/04 06:34:29;;;;;;;;;;;14.80;99.90;;;;;;7317865;19;9193;-63
2023/10/04 06:36:58;;;;;;;;;;;14.70;99.90;;;;;;7322927;19;9332;-63
2023/10/04 06:39:27;;;;;;;;;;;14.70;99.90;;;;;;7322219;19;11557;-63
2023/10/04 06:41:56;;;;;;;;;;;14.70;99.90;;;;;;7322586;19;9443;-62
2023/10/04 06:44:27;;;;;;;;;;;14.80;99.90;;;;;;7318428;19;9464;-64
2023/10/04 06:46:56;;;;;;;;;;;14.70;99.90;;;;;;7317616;19;10476;-63
2023/10/04 06:49:25;;;;;;;;;;;14.70;99.90;;;;;;7314226;19;9230;-63
2023/10/04 06:51:57;;;;;;;;;;;14.70;99.90;;;;;;7318816;19;9324;-63
2023/10/04 06:54:26;;;;;;;;;;;14.70;99.90;;;;;;7323805;19;9250;-63
2023/10/04 06:56:55;;;;;;;;;;;14.90;99.90;;;;;;7324692;19;10395;-63
2023/10/04 06:59:23;;;;;;;;;;;15.30;99.90;;;;;;7317954;19;13339;-62
2023/10/04 07:01:53;;;;;;;;;;;15.50;99.90;;;;;;7322206;19;9249;-63
2023/10/04 07:04:22;;;;;;;;;;;15.30;99.90;;;;;;7313924;19;9460;-62
2023/10/04 07:06:51;;;;;;;;;;;15.40;99.90;;;;;;7320230;19;9229;-62
2023/10/04 07:09:23;;;;;;;;;;;15.50;99.90;;;;;;7317445;19;9150;-63
2023/10/04 07:11:53;;;;;;;;;;;15.50;99.90;;;;;;7318048;19;9307;-63
2023/10/04 07:14:22;;;;;;;;;;;15.80;99.90;;;;;;7319487;19;9276;-63
2023/10/04 07:16:51;;;;;;;;;;;15.90;99.90;;;;;;7316060;19;9229;-63
2023/10/04 07:19:20;;;;;;;;;;;16.00;99.90;;;;;;7320395;19;9252;-62
2023/10/04 07:21:50;;;;;;;;;;;16.00;99.90;;;;;;7321321;19;8995;-62
2023/10/04 07:24:18;;;;;;;;;;;16.30;99.90;;;;;;7320904;19;9551;-63
2023/10/04 07:26:55;;;;;;;;;;;16.70;99.90;;;;;;7319518;19;9505;-63
2023/10/04 07:29:24;;;;;;;;;;;17.10;99.90;;;;;;7320678;19;9479;-63
2023/10/04 07:31:53;;;;;;;;;;;17.30;99.90;;;;;;7319848;19;9263;-63
2023/10/04 07:34:23;;;;;;;;;;;17.60;99.90;;;;;;7314183;19;9226;-63
2023/10/04 07:36:53;;;;;;;;;;;17.80;99.90;;;;;;7313502;19;9373;-63
2023/10/04 07:39:22;;;;;;;;;;;17.90;99.90;;;;;;7318881;19;9120;-63
2023/10/04 07:41:54;;;;;;;;;;;18.00;99.90;;;;;;7318954;19;9330;-63
2023/10/04 07:44:25;;;;;;;;;;;18.10;99.90;;;;;;7319718;19;9336;-63
2023/10/04 07:46:56;;;;;;;;;;;18.10;99.90;;;;;;7316159;19;9230;-63
2023/10/04 07:49:25;;;;;;;;;;;18.20;99.90;;;;;;7321864;19;9232;-64
2023/10/04 07:51:54;;;;;;;;;;;18.20;99.90;;;;;;7316254;19;9127;-63
2023/10/04 07:54:24;;;;;;;;;;;18.10;99.90;;;;;;7321948;19;9186;-63
2023/10/04 07:56:55;;;;;;;;;;;18.00;99.90;;;;;;7321318;19;9523;-64
2023/10/04 07:59:24;;;;;;;;;;;18.00;99.90;;;;;;7318118;19;9396;-63
2023/10/04 08:01:53;;;;;;;;;;;18.10;99.90;;;;;;7319297;19;9753;-64
2023/10/04 08:04:22;;;;;;;;;;;18.20;99.90;;;;;;7318364;19;9301;-63
2023/10/04 08:06:52;;;;;;;;;;;18.20;99.90;;;;;;7316957;19;9180;-63
2023/10/04 08:09:22;;;;;;;;;;;18.00;99.90;;;;;;7317172;19;9317;-63
2023/10/04 08:11:55;;;;;;;;;;;17.90;99.90;;;;;;7316413;19;9290;-64
2023/10/04 08:14:23;;;;;;;;;;;17.90;99.90;;;;;;7316657;19;9565;-63
2023/10/04 08:16:52;;;;;;;;;;;17.90;99.90;;;;;;7311708;19;9544;-63
2023/10/04 08:19:22;;;;;;;;;;;18.00;99.90;;;;;;7316970;19;9356;-63
2023/10/04 08:21:51;;;;;;;;;;;17.90;99.90;;;;;;7316038;19;9222;-63
2023/10/04 08:24:20;;;;;;;;;;;18.00;99.90;;;;;;7316502;19;9315;-63
2023/10/04 08:26:50;;;;;;;;;;;18.00;99.90;;;;;;7317425;19;9246;-63
2023/10/04 08:29:23;;;;;;;;;;;18.00;99.90;;;;;;7316050;19;9455;-63
2023/10/04 08:31:52;;;;;;;;;;;18.10;99.90;;;;;;7321294;19;9491;-62
2023/10/04 08:34:21;;;;;;;;;;;18.10;99.90;;;;;;7319227;19;10444;-63
2023/10/04 08:36:50;;;;;;;;;;;18.20;99.90;;;;;;7318434;19;9421;-63
2023/10/04 08:39:19;;;;;;;;;;;18.30;99.90;;;;;;7320214;19;9228;-63
2023/10/04 08:41:48;;;;;;;;;;;18.30;99.90;;;;;;7318027;19;9185;-63
2023/10/04 08:44:18;;;;;;;;;;;18.40;99.90;;;;;;7318738;19;10360;-63
2023/10/04 08:46:53;;;;;;;;;;;18.30;99.90;;;;;;7317484;19;9476;-63
2023/10/04 08:49:27;;;;;;;;;;;18.40;99.90;;;;;;7319110;19;9637;-63
2023/10/04 08:52:02;;;;;;;;;;;18.40;99.90;;;;;;7317952;19;9482;-63
2023/10/04 08:54:32;;;;;;;;;;;18.40;99.90;;;;;;7310219;19;9249;-64
2023/10/04 08:57:08;;;;;;;;;;;18.40;99.90;;;;;;7308032;19;9122;-63
2023/10/04 08:59:37;;;;;;;;;;;18.40;99.90;;;;;;7312408;19;9511;-64
2023/10/04 09:02:13;;;;;;;;;;;18.50;99.90;;;;;;7316055;19;9755;-62
2023/10/04 09:04:44;;;;;;;;;;;18.60;99.90;;;;;;7310466;19;9406;-63
2023/10/04 09:07:13;;;;;;;;;;;18.60;99.90;;;;;;7309406;19;10811;-63
2023/10/04 09:09:43;;;;;;;;;;;18.80;99.90;;;;;;7313613;19;10241;-63
2023/10/04 09:12:12;;;;;;;;;;;18.90;99.90;;;;;;7317784;19;9241;-63
2023/10/04 09:14:41;;;;;;;;;;;18.80;99.90;;;;;;7311972;19;9198;-63
2023/10/04 09:17:14;;;;;;;;;;;19.00;99.90;;;;;;7311282;19;9261;-63
2023/10/04 09:19:48;;;;;;;;;;;19.10;99.90;;;;;;7318911;19;10465;-63
2023/10/04 09:22:20;;;;;;;;;;;19.20;99.90;;;;;;7317083;19;9301;-63
2023/10/04 09:24:56;;;;;;;;;;;19.20;99.90;;;;;;7316679;19;9561;-63
2023/10/04 09:27:25;;;;;;;;;;;19.40;99.90;;;;;;7310568;19;9173;-63
2023/10/04 09:29:58;;;;;;;;;;;19.30;99.90;;;;;;7312192;19;9556;-63
2023/10/04 09:32:42;;;;;;;;;;;19.10;99.90;;;;;;7309013;19;9314;-63
2023/10/04 09:35:11;;;;;;;;;;;19.20;99.90;;;;;;7311949;19;9412;-63
2023/10/04 09:37:44;;;;;;;;;;;19.30;99.90;;;;;;7318637;19;9285;-63
2023/10/04 09:40:16;;;;;;;;;;;19.30;99.90;;;;;;7320987;19;9124;-63
2023/10/04 09:42:49;;;;;;;;;;;19.40;99.90;;;;;;7315861;19;10400;-62
2023/10/04 09:45:20;;;;;;;;;;;19.50;99.90;;;;;;7322431;19;9497;-63
2023/10/04 09:47:53;;;;;;;;;;;19.40;99.90;;;;;;7320154;19;9274;-63
2023/10/04 09:50:24;;;;;;;;;;;19.40;99.90;;;;;;7320840;19;9500;-63
2023/10/04 09:52:53;;;;;;;;;;;19.50;99.90;;;;;;7323992;19;9195;-63
2023/10/04 09:55:23;;;;;;;;;;;19.60;99.90;;;;;;7320797;19;9318;-63
2023/10/04 09:57:54;;;;;;;;;;;19.60;99.90;;;;;;7322792;19;9383;-63
2023/10/04 10:00:24;;;;;;;;;;;19.80;99.70;;;;;;7321264;19;9661;-63
2023/10/04 10:02:57;;;;;;;;;;;19.70;99.90;;;;;;7315818;19;9284;-63
2023/10/04 10:05:31;;;;;;;;;;;19.80;99.90;;;;;;7320671;19;10977;-63
2023/10/04 10:08:07;;;;;;;;;;;19.90;99.90;;;;;;7318630;19;9650;-63
2023/10/04 10:10:40;;;;;;;;;;;20.00;99.90;;;;;;7311490;19;9273;-63
2023/10/04 10:13:11;;;;;;;;;;;19.90;99.90;;;;;;7319847;19;9616;-64
2023/10/04 10:15:41;;;;;;;;;;;19.90;99.90;;;;;;7323320;19;9217;-63
2023/10/04 10:18:15;;;;;;;;;;;19.80;99.90;;;;;;7326401;19;9105;-63
2023/10/04 10:20:45;;;;;;;;;;;19.70;99.90;;;;;;7314047;19;9206;-64
2023/10/04 10:23:20;;;;;;;;;;;19.70;99.90;;;;;;7325311;19;9327;-64
2023/10/04 10:26:18;;;;;;;;;;;19.70;99.90;;;;;;7325170;19;9243;-64
2023/10/04 10:28:48;;;;;;;;;;;19.90;99.90;;;;;;7325313;19;9281;-64
2023/10/04 10:31:22;;;;;;;;;;;19.90;99.90;;;;;;7321808;19;9194;-64
2023/10/04 10:33:56;;;;;;;;;;;19.90;99.90;;;;;;7322732;19;9337;-63
2023/10/04 10:36:27;;;;;;;;;;;19.90;99.90;;;;;;7324873;19;9162;-63
2023/10/04 10:38:57;;;;;;;;;;;19.90;99.90;;;;;;7324425;19;9171;-64
2023/10/04 10:42:11;;;;;;;;;;;19.90;99.90;;;;;;7323920;19;9579;-63
2023/10/04 10:44:41;;;;;;;;;;;20.00;99.90;;;;;;7324474;19;9403;-63
2023/10/04 10:47:25;;;;;;;;;;;19.90;99.90;;;;;;7323313;19;9245;-64
2023/10/04 10:49:58;;;;;;;;;;;20.10;99.90;;;;;;7321933;19;9670;-64
2023/10/04 10:52:31;;;;;;;;;;;20.00;99.90;;;;;;7323730;19;9479;-64
2023/10/04 10:55:01;;;;;;;;;;;20.00;99.90;;;;;;7324186;19;9246;-63
2023/10/04 10:57:32;;;;;;;;;;;19.90;99.90;;;;;;7324689;19;9206;-65
2023/10/04 11:00:07;;;;;;;;;;;19.90;99.90;;;;;;7317090;19;9189;-63
2023/10/04 11:02:36;;;;;;;;;;;19.80;99.60;;;;;;7324082;19;9135;-64
2023/10/04 11:05:12;;;;;;;;;;;19.70;99.90;;;;;;7320695;19;10410;-63
2023/10/04 11:07:41;;;;;;;;;;;19.60;99.90;;;;;;7323349;19;9175;-64
2023/10/04 11:10:15;;;;;;;;;;;19.60;99.90;;;;;;7322324;19;9449;-64
2023/10/04 11:12:46;;;;;;;;;;;19.50;99.90;;;;;;7324261;19;9507;-64
2023/10/04 11:15:17;;;;;;;;;;;19.40;99.90;;;;;;7319317;19;9265;-64
2023/10/04 11:17:46;;;;;;;;;;;19.40;99.90;;;;;;7323572;19;10712;-64
2023/10/04 11:20:21;;;;;;;;;;;19.30;99.90;;;;;;7321042;19;9291;-64
2023/10/04 11:22:51;;;;;;;;;;;19.40;99.90;;;;;;7322580;19;10815;-64
2023/10/04 11:25:21;;;;;;;;;;;19.40;99.90;;;;;;7323040;19;9242;-64
2023/10/04 11:27:53;;;;;;;;;;;19.30;99.90;;;;;;7311022;19;9512;-63
2023/10/04 11:30:23;;;;;;;;;;;19.20;99.90;;;;;;7316804;19;9567;-64
2023/10/04 11:32:52;;;;;;;;;;;19.20;99.90;;;;;;7309723;19;10087;-64
2023/10/04 11:35:24;;;;;;;;;;;19.20;99.90;;;;;;7314069;19;9714;-63
2023/10/04 11:37:54;;;;;;;;;;;19.20;99.90;;;;;;7321707;19;9445;-64
2023/10/04 11:40:29;;;;;;;;;;;19.10;99.90;;;;;;7320942;19;9282;-64
2023/10/04 11:43:03;;;;;;;;;;;19.00;99.90;;;;;;7321965;19;9265;-63
2023/10/04 11:45:33;;;;;;;;;;;19.00;99.90;;;;;;7316936;19;9890;-64
2023/10/04 11:48:05;;;;;;;;;;;19.10;99.90;;;;;;7320848;19;9672;-64
2023/10/04 11:50:51;;;;;;;;;;;19.10;99.90;;;;;;7312025;19;9604;-64
2023/10/04 11:53:32;;;;;;;;;;;18.90;99.90;;;;;;7314252;19;9273;-64
2023/10/04 11:56:06;;;;;;;;;;;18.90;99.90;;;;;;7309151;19;9483;-65
2023/10/04 11:58:44;;;;;;;;;;;18.90;99.90;;;;;;7314646;19;9237;-64
2023/10/04 12:01:13;;;;;;;;;;;19.00;99.90;;;;;;7317194;19;9579;-63
2023/10/04 12:03:42;;;;;;;;;;;19.00;99.90;;;;;;7313503;19;9289;-64
2023/10/04 12:06:14;;;;;;;;;;;19.00;99.90;;;;;;7319806;19;9195;-64
2023/10/04 12:08:43;;;;;;;;;;;18.90;99.90;;;;;;7315667;19;9174;-63
2023/10/04 12:11:21;;;;;;;;;;;18.90;99.90;;;;;;7313286;19;9445;-64
2023/10/04 12:13:51;;;;;;;;;;;18.90;99.90;;;;;;7314169;19;9494;-64
2023/10/04 12:16:20;;;;;;;;;;;19.00;99.90;;;;;;7311520;19;9222;-64
2023/10/04 12:18:50;;;;;;;;;;;19.00;99.90;;;;;;7314861;19;9311;-64
2023/10/04 12:21:22;;;;;;;;;;;19.00;99.90;;;;;;7317318;19;9383;-65
2023/10/04 12:23:52;;;;;;;;;;;18.90;99.90;;;;;;7316953;19;9330;-65
2023/10/04 12:26:21;;;;;;;;;;;18.90;99.90;;;;;;7314830;19;9292;-65
2023/10/04 12:28:50;;;;;;;;;;;18.90;99.90;;;;;;7319734;19;9330;-64
2023/10/04 12:31:20;;;;;;;;;;;18.90;99.90;;;;;;7308671;19;9463;-64
2023/10/04 12:33:51;;;;;;;;;;;19.00;99.90;;;;;;7315008;19;10929;-64
2023/10/04 12:36:25;;;;;;;;;;;19.00;99.90;;;;;;7311898;19;9292;-64
2023/10/04 12:38:54;;;;;;;;;;;19.10;99.90;;;;;;7314129;19;10193;-64
2023/10/04 12:41:25;;;;;;;;;;;19.10;99.90;;;;;;7314798;19;9173;-64
2023/10/04 12:43:54;;;;;;;;;;;19.00;99.90;;;;;;7315126;19;9515;-64
2023/10/04 12:46:23;;;;;;;;;;;19.10;99.90;;;;;;7315963;19;9258;-63
2023/10/04 12:48:53;;;;;;;;;;;19.10;99.90;;;;;;7313509;19;11847;-64
2023/10/04 12:51:26;;;;;;;;;;;19.10;99.90;;;;;;7319834;19;9231;-64
2023/10/04 12:53:55;;;;;;;;;;;19.20;99.90;;;;;;7318262;19;10820;-64
2023/10/04 12:56:24;;;;;;;;;;;19.20;99.90;;;;;;7316142;19;9311;-64
2023/10/04 12:58:53;;;;;;;;;;;19.20;99.90;;;;;;7313610;19;9392;-64
2023/10/04 13:01:22;;;;;;;;;;;19.20;99.90;;;;;;7318813;19;9505;-63
2023/10/04 13:03:51;;;;;;;;;;;19.10;99.90;;;;;;7317441;19;9690;-64
2023/10/04 13:06:20;;;;;;;;;;;19.20;99.90;;;;;;7310138;19;9165;-64
2023/10/04 13:08:52;;;;;;;;;;;19.30;99.90;;;;;;7312679;19;10217;-64
2023/10/04 13:11:21;;;;;;;;;;;19.30;99.70;;;;;;7319252;19;9440;-64
2023/10/04 13:13:50;;;;;;;;;;;19.40;99.80;;;;;;7319662;19;9170;-64
2023/10/04 13:16:21;;;;;;;;;;;19.30;99.90;;;;;;7318177;19;9332;-63
2023/10/04 13:18:51;;;;;;;;;;;19.40;99.90;;;;;;7313025;19;9296;-64
2023/10/04 13:21:20;;;;;;;;;;;19.40;98.30;;;;;;7320127;19;9293;-64
2023/10/04 13:23:52;;;;;;;;;;;19.30;99.70;;;;;;7320391;19;9595;-64
2023/10/04 13:26:22;;;;;;;;;;;19.30;99.40;;;;;;7316456;19;9146;-64
2023/10/04 13:28:52;;;;;;;;;;;19.30;99.70;;;;;;7318255;19;9205;-64
2023/10/04 13:31:22;;;;;;;;;;;19.30;99.90;;;;;;7320085;19;9477;-63
2023/10/04 13:33:51;;;;;;;;;;;19.30;99.80;;;;;;7312600;19;10231;-64
2023/10/04 13:36:20;;;;;;;;;;;19.30;99.50;;;;;;7313809;19;9406;-64
2023/10/04 13:38:51;;;;;;;;;;;19.20;99.90;;;;;;7316424;19;9514;-64
2023/10/04 13:41:22;;;;;;;;;;;19.20;99.90;;;;;;7314183;19;9510;-64
2023/10/04 13:43:51;;;;;;;;;;;19.20;99.90;;;;;;7313865;19;9612;-64
2023/10/04 13:46:20;;;;;;;;;;;19.10;99.90;;;;;;7314629;19;9496;-64
2023/10/04 13:48:49;;;;;;;;;;;19.20;99.90;;;;;;7319689;19;9624;-64
2023/10/04 13:51:25;;;;;;;;;;;19.10;99.90;;;;;;7314443;19;9204;-64
2023/10/04 13:53:58;;;;;;;;;;;19.10;99.90;;;;;;7310882;19;9118;-63
2023/10/04 13:56:27;;;;;;;;;;;19.00;99.90;;;;;;7315304;19;9561;-64
2023/10/04 13:58:56;;;;;;;;;;;19.00;99.90;;;;;;7307593;19;9651;-64
2023/10/04 14:01:25;;;;;;;;;;;18.90;99.90;;;;;;7319913;19;9750;-64
2023/10/04 14:03:55;;;;;;;;;;;18.90;99.90;;;;;;7306974;19;9641;-64
2023/10/04 14:06:25;;;;;;;;;;;18.80;99.90;;;;;;7296656;19;9971;-64
2023/10/04 14:08:57;;;;;;;;;;;18.80;99.90;;;;;;7305993;19;9675;-64
2023/10/04 14:11:26;;;;;;;;;;;18.80;99.90;;;;;;7310810;19;9269;-64
2023/10/04 14:13:55;;;;;;;;;;;18.80;99.90;;;;;;7315986;19;9770;-63
2023/10/04 14:16:25;;;;;;;;;;;18.90;99.90;;;;;;7302873;19;9733;-63
2023/10/04 14:18:54;;;;;;;;;;;18.80;99.90;;;;;;7302942;19;9590;-64
2023/10/04 14:21:24;;;;;;;;;;;18.90;99.90;;;;;;7308551;19;9618;-64
2023/10/04 14:23:55;;;;;;;;;;;18.90;99.90;;;;;;7316306;19;9494;-64
2023/10/04 14:26:24;;;;;;;;;;;18.90;99.90;;;;;;7325009;19;9416;-65
2023/10/04 14:28:53;;;;;;;;;;;18.90;99.90;;;;;;7324587;19;9432;-65
2023/10/04 14:31:26;;;;;;;;;;;18.80;99.90;;;;;;7322981;19;9485;-64
2023/10/04 14:33:55;;;;;;;;;;;18.70;99.90;;;;;;7322761;19;9170;-64
2023/10/04 14:36:24;;;;;;;;;;;18.60;99.90;;;;;;7320867;19;9237;-64
2023/10/04 14:38:56;;;;;;;;;;;18.50;99.90;;;;;;7322614;19;9473;-64
2023/10/04 14:41:25;;;;;;;;;;;18.40;99.90;;;;;;7322063;19;9473;-63
2023/10/04 14:43:54;;;;;;;;;;;18.40;99.90;;;;;;7320830;19;9519;-63
2023/10/04 14:46:23;;;;;;;;;;;18.50;99.90;;;;;;7320602;19;9527;-64
2023/10/04 14:48:52;;;;;;;;;;;18.50;99.90;;;;;;7321758;19;9226;-64